createdAt,value
2023-04-21T00:01:03.884Z,100.00
2023-04-21T00:03:34.082Z,100.00
2023-04-21T00:06:01.789Z,100.00
2023-04-21T00:08:29.074Z,100.00
2023-04-21T00:10:56.514Z,100.00
2023-04-21T00:13:24.259Z,100.00
2023-04-21T00:15:51.880Z,100.00
2023-04-21T00:18:19.464Z,100.00
2023-04-21T00:20:47.219Z,100.00
2023-04-21T00:23:14.639Z,100.00
2023-04-21T00:25:41.933Z,100.00
2023-04-21T00:28:09.033Z,100.00
2023-04-21T00:30:38.298Z,100.00
2023-04-21T00:33:05.691Z,100.00
2023-04-21T00:35:33.298Z,100.00
2023-04-21T00:38:01.617Z,100.00
2023-04-21T00:40:30.020Z,100.00
2023-04-21T00:42:57.399Z,100.00
2023-04-21T00:45:24.925Z,100.00
2023-04-21T00:47:52.498Z,100.00
2023-04-21T00:50:20.174Z,100.00
2023-04-21T00:52:49.111Z,100.00
2023-04-21T00:55:17.059Z,100.00
2023-04-21T00:57:45.040Z,100.00
2023-04-21T01:00:13.092Z,100.00
2023-04-21T01:02:41.576Z,100.00
2023-04-21T01:05:09.815Z,100.00
2023-04-21T01:07:39.212Z,100.00
2023-04-21T01:10:07.518Z,100.00
2023-04-21T01:12:42.637Z,100.00
2023-04-21T01:15:11.376Z,100.00
2023-04-21T01:17:40.380Z,100.00
2023-04-21T01:20:10.934Z,100.00
2023-04-21T01:22:39.954Z,100.00
2023-04-21T01:25:08.984Z,100.00
2023-04-21T01:27:37.188Z,100.00
2023-04-21T01:30:06.223Z,100.00
2023-04-21T01:32:33.914Z,100.00
2023-04-21T01:35:01.571Z,100.00
2023-04-21T01:37:33.005Z,100.00
2023-04-21T01:40:05.263Z,100.00
2023-04-21T01:42:37.532Z,100.00
2023-04-21T01:45:05.601Z,100.00
2023-04-21T01:47:33.321Z,100.00
2023-04-21T01:50:00.987Z,100.00
2023-04-21T01:52:28.467Z,100.00
2023-04-21T01:54:56.391Z,100.00
2023-04-21T01:57:23.839Z,100.00
2023-04-21T01:59:52.062Z,100.00
2023-04-21T02:02:19.452Z,100.00
2023-04-21T02:04:47.181Z,100.00
2023-04-21T02:07:14.794Z,100.00
2023-04-21T02:09:42.804Z,100.00
2023-04-21T02:12:10.381Z,100.00
2023-04-21T02:14:38.692Z,100.00
2023-04-21T02:17:08.174Z,100.00
2023-04-21T02:19:35.673Z,100.00
2023-04-21T02:22:03.462Z,100.00
2023-04-21T02:24:30.977Z,100.00
2023-04-21T02:26:58.713Z,100.00
2023-04-21T02:29:29.062Z,100.00
2023-04-21T02:32:05.315Z,100.00
2023-04-21T02:34:43.021Z,100.00
2023-04-21T02:37:10.461Z,100.00
2023-04-21T02:39:38.141Z,100.00
2023-04-21T02:42:06.338Z,100.00
2023-04-21T02:44:33.809Z,100.00
2023-04-21T02:47:01.267Z,100.00
2023-04-21T02:49:28.808Z,100.00
2023-04-21T02:52:00.911Z,100.00
2023-04-21T02:54:28.394Z,100.00
2023-04-21T02:56:55.699Z,100.00
2023-04-21T02:59:23.042Z,100.00
2023-04-21T03:01:50.646Z,100.00
2023-04-21T03:04:20.002Z,100.00
2023-04-21T03:06:47.448Z,100.00
2023-04-21T03:09:14.756Z,100.00
2023-04-21T03:11:41.972Z,100.00
2023-04-21T03:14:09.507Z,100.00
2023-04-21T03:16:36.965Z,100.00
2023-04-21T03:19:06.206Z,100.00
2023-04-21T03:21:36.212Z,100.00
2023-04-21T03:24:03.907Z,100.00
2023-04-21T03:26:31.607Z,100.00
2023-04-21T03:28:59.026Z,100.00
2023-04-21T03:31:26.513Z,100.00
2023-04-21T03:33:54.008Z,100.00
2023-04-21T03:36:21.689Z,100.00
2023-04-21T03:38:49.255Z,100.00
2023-04-21T03:41:17.633Z,100.00
2023-04-21T03:43:45.296Z,100.00
2023-04-21T03:46:22.542Z,100.00
2023-04-21T03:48:50.177Z,100.00
2023-04-21T03:51:17.636Z,100.00
2023-04-21T03:53:45.054Z,100.00
2023-04-21T03:56:12.348Z,100.00
2023-04-21T03:58:39.793Z,100.00
2023-04-21T04:01:07.867Z,100.00
2023-04-21T04:03:35.748Z,100.00
2023-04-21T04:06:04.260Z,100.00
2023-04-21T04:08:31.801Z,100.00
2023-04-21T04:10:59.118Z,100.00
2023-04-21T04:13:27.733Z,100.00
2023-04-21T04:15:55.331Z,100.00
2023-04-21T04:18:22.805Z,100.00
2023-04-21T04:20:50.044Z,100.00
2023-04-21T04:23:17.286Z,100.00
2023-04-21T04:25:44.545Z,100.00
2023-04-21T04:28:12.778Z,100.00
2023-04-21T04:30:40.169Z,100.00
2023-04-21T04:33:07.585Z,100.00
2023-04-21T04:35:35.093Z,100.00
2023-04-21T04:38:04.447Z,100.00
2023-04-21T04:40:33.339Z,100.00
2023-04-21T04:43:02.782Z,100.00
2023-04-21T04:45:33.116Z,100.00
2023-04-21T04:48:00.769Z,100.00
2023-04-21T04:50:28.257Z,100.00
2023-04-21T04:52:57.661Z,100.00
2023-04-21T04:55:26.065Z,100.00
2023-04-21T04:57:53.540Z,100.00
2023-04-21T05:00:21.079Z,100.00
2023-04-21T05:02:48.792Z,100.00
2023-04-21T05:05:16.537Z,100.00
2023-04-21T05:07:44.294Z,100.00
2023-04-21T05:10:11.807Z,100.00
2023-04-21T05:12:39.325Z,100.00
2023-04-21T05:15:06.906Z,100.00
2023-04-21T05:17:34.360Z,100.00
2023-04-21T05:20:01.799Z,100.00
2023-04-21T05:22:29.112Z,100.00
2023-04-21T05:24:56.328Z,100.00
2023-04-21T05:27:23.830Z,100.00
2023-04-21T05:29:51.280Z,100.00
2023-04-21T05:32:18.704Z,100.00
2023-04-21T05:34:46.153Z,100.00
2023-04-21T05:37:13.498Z,100.00
2023-04-21T05:39:40.863Z,100.00
2023-04-21T05:42:11.010Z,100.00
2023-04-21T05:44:38.839Z,100.00
2023-04-21T05:47:06.430Z,100.00
2023-04-21T05:49:33.961Z,97.96
2023-04-21T05:52:01.530Z,92.05
2023-04-21T05:54:29.069Z,86.63
2023-04-21T05:56:57.069Z,78.93
2023-04-21T05:59:30.246Z,73.78
2023-04-21T06:02:00.223Z,71.18
2023-04-21T06:04:27.863Z,68.66
2023-04-21T06:06:56.087Z,68.52
2023-04-21T06:09:23.459Z,67.14
2023-04-21T06:11:50.946Z,66.81
2023-04-21T06:14:18.590Z,65.45
2023-04-21T06:16:46.758Z,65.56
2023-04-21T06:19:14.212Z,65.97
2023-04-21T06:21:41.703Z,64.51
2023-04-21T06:24:09.291Z,64.34
2023-04-21T06:26:36.876Z,63.21
2023-04-21T06:29:04.370Z,62.44
2023-04-21T06:31:31.977Z,61.66
2023-04-21T06:33:59.793Z,61.86
2023-04-21T06:36:27.645Z,61.41
2023-04-21T06:39:05.141Z,59.86
2023-04-21T06:41:38.434Z,57.44
2023-04-21T06:44:06.164Z,56.14
2023-04-21T06:46:33.628Z,56.41
2023-04-21T06:49:01.269Z,56.72
2023-04-21T06:51:28.711Z,55.73
2023-04-21T06:53:56.237Z,54.84
2023-04-21T06:56:23.680Z,53.21
2023-04-21T06:58:51.140Z,52.54
2023-04-21T07:01:18.686Z,53.08
2023-04-21T07:03:46.756Z,53.23
2023-04-21T07:06:14.332Z,51.99
2023-04-21T07:08:43.172Z,51.22
2023-04-21T07:11:10.608Z,51.73
2023-04-21T07:13:38.053Z,50.67
2023-04-21T07:16:05.934Z,51.37
2023-04-21T07:18:34.799Z,51.59
2023-04-21T07:21:02.248Z,52.43
2023-04-21T07:23:29.876Z,51.79
2023-04-21T07:25:59.084Z,51.27
2023-04-21T07:28:26.766Z,50.54
2023-04-21T07:30:54.220Z,49.04
2023-04-21T07:33:21.755Z,46.85
2023-04-21T07:35:49.240Z,46.07
2023-04-21T07:38:16.654Z,45.28
2023-04-21T07:40:44.741Z,45.03
2023-04-21T07:43:12.308Z,45.42
2023-04-21T07:45:39.848Z,46.46
2023-04-21T07:48:07.798Z,46.44
2023-04-21T07:50:36.484Z,44.78
2023-04-21T07:53:03.969Z,43.33
2023-04-21T07:55:31.525Z,44.28
2023-04-21T07:57:59.004Z,44.09
2023-04-21T08:00:26.730Z,43.77
2023-04-21T08:02:54.350Z,43.55
2023-04-21T08:05:22.061Z,43.62
2023-04-21T08:07:49.887Z,43.02
2023-04-21T08:10:17.340Z,42.58
2023-04-21T08:12:44.846Z,43.05
2023-04-21T08:15:12.677Z,43.18
2023-04-21T08:17:40.350Z,41.88
2023-04-21T08:20:08.840Z,41.67
2023-04-21T08:22:39.177Z,41.64
2023-04-21T08:25:07.223Z,41.07
2023-04-21T08:27:34.654Z,40.80
2023-04-21T08:30:02.324Z,41.07
2023-04-21T08:32:29.814Z,40.84
2023-04-21T08:34:57.685Z,40.57
2023-04-21T08:37:25.137Z,40.62
2023-04-21T08:39:53.777Z,40.38
2023-04-21T08:42:21.254Z,40.42
2023-04-21T08:44:49.153Z,39.66
2023-04-21T08:47:16.733Z,39.06
2023-04-21T08:49:50.150Z,38.46
2023-04-21T08:52:18.476Z,40.87
2023-04-21T08:54:47.561Z,43.09
2023-04-21T08:57:16.284Z,45.97
2023-04-21T08:59:45.640Z,46.25
2023-04-21T09:02:19.059Z,46.05
2023-04-21T09:04:49.298Z,45.53
2023-04-21T09:07:34.342Z,44.78
2023-04-21T09:10:02.379Z,44.43
2023-04-21T09:12:30.799Z,45.59
2023-04-21T09:14:58.466Z,46.32
2023-04-21T09:17:36.470Z,47.18
2023-04-21T09:20:15.984Z,48.18
2023-04-21T09:22:44.646Z,49.58
2023-04-21T09:25:17.712Z,50.39
2023-04-21T09:27:47.149Z,51.05
2023-04-21T09:30:19.257Z,50.78
2023-04-21T09:32:47.008Z,48.99
2023-04-21T09:35:14.564Z,48.69
2023-04-21T09:37:44.174Z,50.46
2023-04-21T09:40:15.408Z,50.20
2023-04-21T09:42:44.773Z,49.59
2023-04-21T09:47:51.443Z,45.83
2023-04-21T09:50:39.262Z,44.40
2023-04-21T09:53:14.387Z,42.64
2023-04-21T09:55:42.768Z,41.44
2023-04-21T09:58:15.550Z,40.10
2023-04-21T10:00:43.676Z,39.22
2023-04-21T10:03:14.059Z,39.27
2023-04-21T10:05:43.034Z,39.13
2023-04-21T10:08:12.216Z,38.47
2023-04-21T10:10:40.374Z,38.53
2023-04-21T10:13:13.017Z,38.75
2023-04-21T10:15:42.472Z,38.37
2023-04-21T10:18:14.534Z,38.45
2023-04-21T10:20:59.223Z,39.37
2023-04-21T10:23:32.571Z,39.37
2023-04-21T10:26:06.792Z,39.99
2023-04-21T10:28:55.010Z,40.84
2023-04-21T10:31:51.871Z,41.00
2023-04-21T10:34:30.402Z,41.33
2023-04-21T10:36:58.247Z,42.33
2023-04-21T10:39:36.201Z,42.42
2023-04-21T10:42:13.042Z,42.00
2023-04-21T10:44:45.587Z,41.21
2023-04-21T10:47:13.715Z,40.59
2023-04-21T10:49:41.296Z,40.55
2023-04-21T10:52:10.979Z,40.39
2023-04-21T10:55:08.465Z,40.45
2023-04-21T10:57:38.757Z,40.51
2023-04-21T11:00:07.267Z,40.02
2023-04-21T11:02:38.661Z,40.62
2023-04-21T11:05:09.502Z,40.39
2023-04-21T11:07:37.233Z,40.68
2023-04-21T11:10:08.771Z,40.41
2023-04-21T11:12:41.052Z,40.88
2023-04-21T11:15:11.951Z,41.34
2023-04-21T11:17:40.069Z,41.19
2023-04-21T11:20:08.682Z,41.19
2023-04-21T11:22:39.060Z,42.06
2023-04-21T11:25:18.623Z,42.81
2023-04-21T11:27:56.732Z,43.53
2023-04-21T11:30:34.918Z,43.53
2023-04-21T11:33:03.095Z,42.69
2023-04-21T11:35:32.294Z,42.48
2023-04-21T11:38:06.089Z,41.68
2023-04-21T11:40:50.013Z,41.44
2023-04-21T11:43:17.683Z,41.16
2023-04-21T11:45:49.640Z,41.30
2023-04-21T11:48:18.059Z,41.66
2023-04-21T11:50:50.603Z,41.25
2023-04-21T11:53:19.775Z,40.70
2023-04-21T11:55:47.606Z,41.02
2023-04-21T11:58:17.958Z,41.26
2023-04-21T12:00:46.394Z,40.86
2023-04-21T12:03:14.577Z,41.14
2023-04-21T12:05:42.230Z,41.46
2023-04-21T12:08:16.472Z,41.42
2023-04-21T12:10:47.306Z,41.42
2023-04-21T12:13:25.216Z,41.56
2023-04-21T12:15:52.783Z,40.95
2023-04-21T12:18:20.234Z,40.38
2023-04-21T12:20:52.809Z,40.24
2023-04-21T12:23:20.354Z,40.65
2023-04-21T12:25:48.106Z,40.89
2023-04-21T12:28:17.415Z,41.03
2023-04-21T12:30:45.399Z,39.30
2023-04-21T12:33:13.292Z,40.42
2023-04-21T12:35:41.023Z,40.38
2023-04-21T12:38:08.462Z,39.79
2023-04-21T12:40:35.902Z,39.65
2023-04-21T12:43:03.547Z,39.68
2023-04-21T12:45:32.760Z,40.25
2023-04-21T12:48:01.174Z,39.23
2023-04-21T12:50:28.699Z,39.15
2023-04-21T12:52:56.287Z,39.74
2023-04-21T12:55:23.989Z,40.67
2023-04-21T12:57:52.900Z,41.01
2023-04-21T13:00:20.555Z,40.79
2023-04-21T13:02:48.225Z,40.92
2023-04-21T13:05:15.761Z,41.22
2023-04-21T13:07:43.348Z,41.30
2023-04-21T13:10:11.326Z,40.84
2023-04-21T13:12:38.936Z,40.98
2023-04-21T13:15:07.055Z,40.91
2023-04-21T13:17:34.647Z,40.93
2023-04-21T13:20:02.343Z,41.35
2023-04-21T13:22:29.922Z,42.13
2023-04-21T13:24:57.458Z,42.46
2023-04-21T13:27:25.062Z,42.94
2023-04-21T13:29:54.386Z,43.21
2023-04-21T13:32:21.959Z,43.21
2023-04-21T13:34:49.416Z,43.35
2023-04-21T13:37:17.312Z,43.03
2023-04-21T13:39:44.865Z,43.32
2023-04-21T13:42:12.553Z,43.30
2023-04-21T13:44:40.021Z,43.03
2023-04-21T13:47:09.364Z,42.97
2023-04-21T13:49:36.863Z,41.90
2023-04-21T13:52:04.474Z,41.91
2023-04-21T13:54:32.089Z,41.84
2023-04-21T13:57:00.139Z,41.61
2023-04-21T13:59:28.070Z,42.16
2023-04-21T14:01:55.717Z,43.21
2023-04-21T14:04:23.417Z,43.55
2023-04-21T14:06:51.451Z,43.65
2023-04-21T14:09:18.992Z,43.45
2023-04-21T14:11:46.628Z,42.38
2023-04-21T14:14:18.962Z,41.23
2023-04-21T14:16:52.252Z,42.64
2023-04-21T14:19:19.876Z,42.91
2023-04-21T14:21:47.417Z,43.07
2023-04-21T14:24:14.839Z,43.43
2023-04-21T14:26:42.804Z,43.53
2023-04-21T14:29:10.471Z,43.47
2023-04-21T14:31:38.094Z,43.90
2023-04-21T14:34:05.741Z,44.38
2023-04-21T14:36:33.363Z,44.73
2023-04-21T14:39:00.937Z,44.59
2023-04-21T14:41:28.593Z,44.70
2023-04-21T14:43:57.775Z,44.68
2023-04-21T14:46:25.455Z,43.90
2023-04-21T14:48:54.010Z,43.86
2023-04-21T14:51:21.861Z,43.71
2023-04-21T14:53:49.259Z,44.02
2023-04-21T14:56:16.801Z,44.13
2023-04-21T14:58:44.223Z,44.68
2023-04-21T15:01:12.744Z,44.53
2023-04-21T15:03:40.796Z,43.43
2023-04-21T15:06:08.536Z,43.64
2023-04-21T15:08:36.037Z,44.10
2023-04-21T15:11:05.290Z,44.11
2023-04-21T15:13:34.345Z,44.06
2023-04-21T15:16:01.857Z,43.46
2023-04-21T15:18:29.370Z,43.21
2023-04-21T15:20:57.443Z,42.64
2023-04-21T15:23:24.875Z,41.80
2023-04-21T15:25:52.360Z,41.85
2023-04-21T15:28:19.813Z,42.21
2023-04-21T15:30:47.604Z,41.92
2023-04-21T15:33:17.149Z,42.72
2023-04-21T15:35:44.721Z,42.41
2023-04-21T15:38:12.134Z,42.06
2023-04-21T15:40:53.139Z,43.13
2023-04-21T15:43:27.613Z,43.46
2023-04-21T15:45:55.267Z,43.92
2023-04-21T15:48:23.204Z,44.05
2023-04-21T15:50:50.999Z,44.51
2023-04-21T15:53:20.095Z,45.01
2023-04-21T15:55:48.089Z,45.62
2023-04-21T15:58:15.856Z,45.93
2023-04-21T16:00:43.394Z,46.44
2023-04-21T16:03:11.156Z,45.54
2023-04-21T16:05:39.284Z,46.02
2023-04-21T16:08:07.013Z,46.02
2023-04-21T16:10:35.535Z,44.95
2023-04-21T16:13:03.122Z,44.39
2023-04-21T16:15:30.924Z,43.29
2023-04-21T16:17:58.736Z,43.03
2023-04-21T16:20:26.320Z,43.31
2023-04-21T16:22:53.938Z,43.56
2023-04-21T16:25:21.819Z,43.50
2023-04-21T16:27:49.345Z,43.41
2023-04-21T16:30:16.798Z,43.21
2023-04-21T16:32:44.306Z,43.54
2023-04-21T16:35:11.874Z,43.44
2023-04-21T16:37:42.704Z,43.77
2023-04-21T16:40:11.783Z,43.70
2023-04-21T16:42:39.625Z,43.92
2023-04-21T16:45:07.664Z,44.09
2023-04-21T16:47:41.087Z,44.16
2023-04-21T16:50:10.192Z,44.22
2023-04-21T16:52:37.908Z,44.18
2023-04-21T16:55:06.094Z,44.69
2023-04-21T16:57:34.252Z,45.33
2023-04-21T17:00:04.674Z,46.05
2023-04-21T17:02:32.579Z,45.87
2023-04-21T17:05:00.729Z,46.13
2023-04-21T17:07:28.568Z,46.38
2023-04-21T17:09:56.122Z,44.61
2023-04-21T17:12:23.851Z,44.50
2023-04-21T17:14:51.363Z,44.72
2023-04-21T17:17:18.875Z,45.30
2023-04-21T17:19:46.466Z,45.63
2023-04-21T17:22:13.880Z,45.82
2023-04-21T17:24:52.510Z,46.14
2023-04-21T17:27:21.617Z,46.46
2023-04-21T17:29:49.209Z,46.52
2023-04-21T17:32:16.994Z,46.57
2023-04-21T17:34:44.636Z,47.10
2023-04-21T17:37:12.171Z,46.69
2023-04-21T17:39:39.657Z,47.16
2023-04-21T17:42:07.088Z,47.02
2023-04-21T17:44:34.999Z,47.17
2023-04-21T17:47:08.168Z,47.25
2023-04-21T17:49:37.046Z,47.24
2023-04-21T17:52:05.657Z,47.25
2023-04-21T17:54:33.141Z,47.92
2023-04-21T17:57:02.093Z,47.65
2023-04-21T17:59:30.734Z,47.69
2023-04-21T18:01:59.239Z,47.69
2023-04-21T18:04:29.835Z,47.69
2023-04-21T18:06:57.465Z,47.80
2023-04-21T18:09:25.618Z,47.53
2023-04-21T18:11:53.071Z,47.64
2023-04-21T18:14:21.295Z,47.82
2023-04-21T18:16:48.768Z,48.04
2023-04-21T18:19:18.377Z,48.33
2023-04-21T18:21:46.016Z,48.19
2023-04-21T18:24:13.605Z,48.47
2023-04-21T18:26:41.231Z,48.54
2023-04-21T18:29:08.830Z,48.74
2023-04-21T18:31:36.411Z,49.04
2023-04-21T18:34:03.951Z,49.21
2023-04-21T18:36:33.439Z,49.62
2023-04-21T18:39:01.319Z,49.06
2023-04-21T18:41:28.994Z,49.57
2023-04-21T18:43:56.719Z,50.06
2023-04-21T18:46:24.208Z,50.31
2023-04-21T18:48:53.255Z,50.42
2023-04-21T18:51:20.722Z,50.09
2023-04-21T18:53:48.362Z,50.28
2023-04-21T18:56:15.872Z,50.57
2023-04-21T18:58:43.365Z,50.94
2023-04-21T19:01:10.912Z,51.04
2023-04-21T19:03:38.525Z,50.94
2023-04-21T19:06:06.411Z,51.20
2023-04-21T19:08:42.170Z,51.43
2023-04-21T19:11:13.793Z,51.64
2023-04-21T19:13:41.422Z,51.49
2023-04-21T19:16:11.844Z,51.53
2023-04-21T19:18:39.311Z,51.63
2023-04-21T19:21:07.262Z,51.65
2023-04-21T19:23:34.853Z,52.17
2023-04-21T19:26:05.166Z,51.58
2023-04-21T19:28:32.831Z,51.80
2023-04-21T19:31:00.405Z,52.34
2023-04-21T19:33:28.155Z,52.86
2023-04-21T19:35:56.185Z,53.30
2023-04-21T19:38:23.660Z,52.99
2023-04-21T19:40:51.227Z,52.56
2023-04-21T19:43:20.387Z,53.04
2023-04-21T19:45:48.383Z,53.40
2023-04-21T19:48:16.094Z,53.64
2023-04-21T19:50:43.583Z,54.09
2023-04-21T19:53:14.781Z,54.95
2023-04-21T19:55:43.014Z,54.85
2023-04-21T19:58:10.691Z,54.77
2023-04-21T20:00:38.543Z,55.27
2023-04-21T20:03:07.257Z,55.47
2023-04-21T20:05:35.172Z,55.41
2023-04-21T20:08:02.683Z,55.70
2023-04-21T20:10:30.176Z,56.37
2023-04-21T20:12:57.425Z,56.15
2023-04-21T20:15:24.869Z,56.17
2023-04-21T20:17:52.252Z,56.55
2023-04-21T20:20:19.767Z,56.96
2023-04-21T20:22:48.086Z,56.25
2023-04-21T20:25:15.712Z,55.91
2023-04-21T20:27:43.217Z,56.05
2023-04-21T20:30:10.903Z,56.07
2023-04-21T20:32:38.338Z,55.78
2023-04-21T20:35:08.159Z,55.69
2023-04-21T20:37:36.026Z,55.67
2023-04-21T20:40:08.479Z,56.21
2023-04-21T20:42:36.460Z,56.22
2023-04-21T20:45:06.282Z,55.94
2023-04-21T20:47:34.211Z,56.19
2023-04-21T20:50:01.806Z,56.63
2023-04-21T20:52:29.585Z,56.61
2023-04-21T20:54:57.158Z,56.45
2023-04-21T20:57:27.015Z,56.54
2023-04-21T20:59:54.877Z,56.55
2023-04-21T21:02:22.517Z,56.66
2023-04-21T21:04:50.212Z,56.79
2023-04-21T21:07:17.856Z,56.38
2023-04-21T21:09:46.078Z,56.25
2023-04-21T21:12:13.596Z,55.89
2023-04-21T21:14:40.984Z,55.75
2023-04-21T21:17:08.450Z,56.12
2023-04-21T21:19:36.072Z,56.21
2023-04-21T21:22:03.782Z,55.84
2023-04-21T21:24:31.248Z,55.77
2023-04-21T21:26:58.738Z,55.91
2023-04-21T21:29:26.170Z,55.90
2023-04-21T21:31:53.674Z,55.89
2023-04-21T21:34:21.121Z,55.69
2023-04-21T21:36:48.719Z,55.94
2023-04-21T21:39:16.193Z,56.41
2023-04-21T21:41:43.881Z,56.20
2023-04-21T21:44:11.429Z,56.31
2023-04-21T21:46:39.179Z,56.41
2023-04-21T21:49:06.729Z,56.20
2023-04-21T21:51:34.358Z,56.54
2023-04-21T21:54:01.836Z,56.48
2023-04-21T21:56:29.285Z,56.00
2023-04-21T21:58:56.518Z,56.47
2023-04-21T22:01:23.881Z,56.54
2023-04-21T22:03:52.127Z,57.10
2023-04-21T22:06:22.210Z,57.03
2023-04-21T22:08:49.828Z,57.34
2023-04-21T22:11:19.810Z,57.51
2023-04-21T22:13:47.213Z,57.64
2023-04-21T22:16:14.879Z,57.62
2023-04-21T22:18:43.405Z,58.00
2023-04-21T22:21:11.830Z,58.13
2023-04-21T22:23:39.264Z,58.44
2023-04-21T22:26:06.692Z,58.03
2023-04-21T22:28:33.986Z,58.20
2023-04-21T22:31:01.387Z,58.36
2023-04-21T22:33:29.247Z,58.41
2023-04-21T22:35:56.770Z,58.61
2023-04-21T22:38:24.269Z,58.68
2023-04-21T22:40:51.925Z,59.64
2023-04-21T22:43:19.474Z,59.53
2023-04-21T22:45:47.569Z,59.27
2023-04-21T22:48:15.012Z,59.09
2023-04-21T22:50:44.911Z,59.25
2023-04-21T22:53:13.399Z,59.39
2023-04-21T22:55:40.947Z,59.93
2023-04-21T22:58:08.399Z,59.84
2023-04-21T23:00:35.931Z,60.25
2023-04-21T23:03:03.619Z,60.34
2023-04-21T23:05:31.386Z,60.52
2023-04-21T23:07:58.829Z,60.42
2023-04-21T23:10:26.325Z,60.92
2023-04-21T23:12:53.703Z,61.00
2023-04-21T23:15:21.492Z,60.91
2023-04-21T23:17:48.901Z,60.89
2023-04-21T23:20:16.549Z,61.09
2023-04-21T23:22:44.058Z,61.15
2023-04-21T23:25:11.603Z,61.12
2023-04-21T23:27:39.030Z,61.60
2023-04-21T23:30:07.538Z,61.25
2023-04-21T23:32:35.249Z,61.30
2023-04-21T23:35:02.829Z,61.30
2023-04-21T23:37:30.317Z,61.51
2023-04-21T23:39:57.719Z,61.83
2023-04-21T23:42:24.973Z,62.42
2023-04-21T23:44:52.384Z,62.66
2023-04-21T23:47:19.651Z,62.12
2023-04-21T23:49:47.138Z,62.33
2023-04-21T23:52:15.101Z,62.48
2023-04-21T23:54:42.708Z,62.69
2023-04-21T23:57:10.213Z,62.66
2023-04-21T23:59:37.937Z,62.99
